Aviation Digital Data Service (ADDS)

Output produced by METARs form (2313 UTC 20 January 2019)
found at http://www.aviationweather.gov/metar/data/
 
METAR text: VTSE 202300Z VRB02KT 5000 BR SCT020 SCT100 23/23 Q1011 NOSIG
Conditions at: VTSE (CHUMPHON , TH) observed 2300 UTC 20 January 2019
Temperature: 23.0°C (73°F)
Dewpoint: 23.0°C (73°F) [RH = 100%]
Pressure (altimeter): 29.85 inches Hg (1011.0 mb)
Winds: variable direction winds at 2 MPH (2 knots; 1.0 m/s)
Visibility: 3 miles ( 5 km)
Ceiling: at least 12,000 feet AGL
Clouds: scattered clouds at 2000 feet AGL
scattered clouds at 10000 feet AGL
Weather: BR  (mist)

METAR text: VTSE 201100Z VRB02KT 9999 FEW020 28/24 Q1010 NOSIG
Conditions at: VTSE (CHUMPHON , TH) observed 1100 UTC 20 January 2019
Temperature: 28.0°C (82°F)
Dewpoint: 24.0°C (75°F) [RH = 79%]
Pressure (altimeter): 29.82 inches Hg (1010.0 mb)
Winds: variable direction winds at 2 MPH (2 knots; 1.0 m/s)
Visibility: 6 or more miles (10+ km)
Ceiling: at least 12,000 feet AGL
Clouds: few clouds at 2000 feet AGL
Weather: no significant weather observed at this time

METAR text: VTSE 201000Z 13004KT 100V170 9999 FEW020 30/23 Q1010 NOSIG
Conditions at: VTSE (CHUMPHON , TH) observed 1000 UTC 20 January 2019
Temperature: 30.0°C (86°F)
Dewpoint: 23.0°C (73°F) [RH = 66%]
Pressure (altimeter): 29.82 inches Hg (1010.0 mb)
Winds: from the SE (130 degrees) at 5 MPH (4 knots; 2.1 m/s)
Visibility: 6 or more miles (10+ km)
Ceiling: at least 12,000 feet AGL
Clouds: few clouds at 2000 feet AGL
Weather: no significant weather observed at this time

METAR text: VTSE 200900Z 11005KT 070V150 9999 FEW020 30/23 Q1010 NOSIG
Conditions at: VTSE (CHUMPHON , TH) observed 0900 UTC 20 January 2019
Temperature: 30.0°C (86°F)
Dewpoint: 23.0°C (73°F) [RH = 66%]
Pressure (altimeter): 29.82 inches Hg (1010.0 mb)
Winds: from the ESE (110 degrees) at 6 MPH (5 knots; 2.6 m/s)
Visibility: 6 or more miles (10+ km)
Ceiling: at least 12,000 feet AGL
Clouds: few clouds at 2000 feet AGL
Weather: no significant weather observed at this time

METAR text: VTSE 200800Z 10006KT 050V120 9999 FEW020 30/24 Q1010 NOSIG
Conditions at: VTSE (CHUMPHON , TH) observed 0800 UTC 20 January 2019
Temperature: 30.0°C (86°F)
Dewpoint: 24.0°C (75°F) [RH = 70%]
Pressure (altimeter): 29.82 inches Hg (1010.0 mb)
Winds: from the E (100 degrees) at 7 MPH (6 knots; 3.1 m/s)
Visibility: 6 or more miles (10+ km)
Ceiling: at least 12,000 feet AGL
Clouds: few clouds at 2000 feet AGL
Weather: no significant weather observed at this time

METAR text: VTSE 200700Z 09007KT 060V120 9999 FEW020 30/25 Q1010 NOSIG
Conditions at: VTSE (CHUMPHON , TH) observed 0700 UTC 20 January 2019
Temperature: 30.0°C (86°F)
Dewpoint: 25.0°C (77°F) [RH = 75%]
Pressure (altimeter): 29.82 inches Hg (1010.0 mb)
Winds: from the E (90 degrees) at 8 MPH (7 knots; 3.6 m/s)
Visibility: 6 or more miles (10+ km)
Ceiling: at least 12,000 feet AGL
Clouds: few clouds at 2000 feet AGL
Weather: no significant weather observed at this time

METAR text: VTSE 200600Z 08007KT 040V110 9000 FEW020 30/25 Q1011 NOSIG
Conditions at: VTSE (CHUMPHON , TH) observed 0600 UTC 20 January 2019
Temperature: 30.0°C (86°F)
Dewpoint: 25.0°C (77°F) [RH = 75%]
Pressure (altimeter): 29.85 inches Hg (1011.0 mb)
Winds: from the E (80 degrees) at 8 MPH (7 knots; 3.6 m/s)
Visibility: 6 miles ( 9 km)
Ceiling: at least 12,000 feet AGL
Clouds: few clouds at 2000 feet AGL
Weather: no significant weather observed at this time

METAR text: VTSE 200500Z 09006KT 040V120 9000 FEW020 30/25 Q1012 NOSIG
Conditions at: VTSE (CHUMPHON , TH) observed 0500 UTC 20 January 2019
Temperature: 30.0°C (86°F)
Dewpoint: 25.0°C (77°F) [RH = 75%]
Pressure (altimeter): 29.88 inches Hg (1012.0 mb)
Winds: from the E (90 degrees) at 7 MPH (6 knots; 3.1 m/s)
Visibility: 6 miles ( 9 km)
Ceiling: at least 12,000 feet AGL
Clouds: few clouds at 2000 feet AGL
Weather: no significant weather observed at this time

METAR text: VTSE 200400Z 07006KT 010V100 9000 FEW020 30/25 Q1013 NOSIG
Conditions at: VTSE (CHUMPHON , TH) observed 0400 UTC 20 January 2019
Temperature: 30.0°C (86°F)
Dewpoint: 25.0°C (77°F) [RH = 75%]
Pressure (altimeter): 29.91 inches Hg (1013.0 mb)
Winds: from the ENE (70 degrees) at 7 MPH (6 knots; 3.1 m/s)
Visibility: 6 miles ( 9 km)
Ceiling: at least 12,000 feet AGL
Clouds: few clouds at 2000 feet AGL
Weather: no significant weather observed at this time

METAR text: VTSE 200300Z 07005KT 360V110 9000 FEW020 29/25 Q1013 NOSIG
Conditions at: VTSE (CHUMPHON , TH) observed 0300 UTC 20 January 2019
Temperature: 29.0°C (84°F)
Dewpoint: 25.0°C (77°F) [RH = 79%]
Pressure (altimeter): 29.91 inches Hg (1013.0 mb)
Winds: from the ENE (70 degrees) at 6 MPH (5 knots; 2.6 m/s)
Visibility: 6 miles ( 9 km)
Ceiling: at least 12,000 feet AGL
Clouds: few clouds at 2000 feet AGL
Weather: no significant weather observed at this time

METAR text: VTSE 200200Z VRB02KT 9000 FEW020 26/24 Q1013 NOSIG
Conditions at: VTSE (CHUMPHON , TH) observed 0200 UTC 20 January 2019
Temperature: 26.0°C (79°F)
Dewpoint: 24.0°C (75°F) [RH = 89%]
Pressure (altimeter): 29.91 inches Hg (1013.0 mb)
Winds: variable direction winds at 2 MPH (2 knots; 1.0 m/s)
Visibility: 6 miles ( 9 km)
Ceiling: at least 12,000 feet AGL
Clouds: few clouds at 2000 feet AGL
Weather: no significant weather observed at this time

METAR text: VTSE 200100Z VRB02KT 7000 FEW020 SCT100 24/24 Q1012 NOSIG
Conditions at: VTSE (CHUMPHON , TH) observed 0100 UTC 20 January 2019
Temperature: 24.0°C (75°F)
Dewpoint: 24.0°C (75°F) [RH = 100%]
Pressure (altimeter): 29.88 inches Hg (1012.0 mb)
Winds: variable direction winds at 2 MPH (2 knots; 1.0 m/s)
Visibility: 4 miles ( 7 km)
Ceiling: at least 12,000 feet AGL
Clouds: few clouds at 2000 feet AGL
scattered clouds at 10000 feet AGL
Weather: no significant weather observed at this time

METAR text: VTSE 200000Z 34003KT 300V040 7000 -RA FEW020 BKN100 23/22 Q1011 NOSIG
Conditions at: VTSE (CHUMPHON , TH) observed 0000 UTC 20 January 2019
Temperature: 23.0°C (73°F)
Dewpoint: 22.0°C (72°F) [RH = 94%]
Pressure (altimeter): 29.85 inches Hg (1011.0 mb)
Winds: from the NNW (340 degrees) at 3 MPH (3 knots; 1.5 m/s)
Visibility: 4 miles ( 7 km)
Ceiling: 10000 feet AGL
Clouds: few clouds at 2000 feet AGL
broken clouds at 10000 feet AGL
Weather: -RA  (light rain)

METAR text: VTSE 192300Z 29003KT 250V320 6000 -DZ SCT020 BKN100 23/22 Q1011 NOSIG
Conditions at: VTSE (CHUMPHON , TH) observed 2300 UTC 19 January 2019
Temperature: 23.0°C (73°F)
Dewpoint: 22.0°C (72°F) [RH = 94%]
Pressure (altimeter): 29.85 inches Hg (1011.0 mb)
Winds: from the WNW (290 degrees) at 3 MPH (3 knots; 1.5 m/s)
Visibility: 4 miles ( 6 km)
Ceiling: 10000 feet AGL
Clouds: scattered clouds at 2000 feet AGL
broken clouds at 10000 feet AGL
Weather: -DZ  (light drizzle)

Forecast for: VTSE (CHUMPHON , TH)
Text: TAF VTSE 201700Z 2018/2118 32003KT 8000 FEW020
Forecast period: 1800 UTC 20 January 2019 to 0300 UTC 21 January 2019
Forecast type: FROM: standard forecast or significant change
Winds: from the NW (320 degrees) at 3 MPH (3 knots; 1.5 m/s)
Visibility: 5 miles (8 km)
Ceiling: at least 12,000 feet AGL
Clouds: few clouds at 2000 feet AGL
Weather: no significant weather forecast for this period
Text: TEMPO 2020/2102 5000 -RA BR SCT015 BKN100
Forecast period: 2000 UTC 20 January 2019 to 0200 UTC 21 January 2019
Forecast type: TEMPORARY: The following changes expected for less than half the time period
Visibility: 3 miles (5 km)
Ceiling: 10000 feet AGL
Clouds: scattered clouds at 1500 feet AGL
broken clouds at 10000 feet AGL
Weather: -RA BR  (light rain, mist)
Text: BECMG 2103/2105 09010KT
Forecast period: 0300 to 1200 UTC 21 January 2019
Forecast type: BECOMING: Conditions expected to become as follows by 0500 UTC 21 January 2019
Winds: from the E (90 degrees) at 12 MPH (10 knots; 5.1 m/s)
Visibility: 5 miles (8 km)
Ceiling: at least 12,000 feet AGL
Clouds: few clouds at 2000 feet AGL
Weather: no significant weather forecast for this period
Text: BECMG 2112/2114 VRB02KT
Forecast period: 1200 to 1800 UTC 21 January 2019
Forecast type: BECOMING: Conditions expected to become as follows by 1400 UTC 21 January 2019
Winds: variable direction winds at 2 MPH (2 knots; 1.0 m/s)
Visibility: 5 miles (8 km)
Ceiling: at least 12,000 feet AGL
Clouds: few clouds at 2000 feet AGL
Weather: no significant weather forecast for this period